createdAt,value
2022-12-14T09:23:41.481Z,-0.79
2022-12-14T09:25:44.213Z,-0.79
2022-12-14T09:27:46.514Z,-1.51
2022-12-14T09:29:50.163Z,-1.39
2022-12-14T09:31:53.017Z,-1.28
2022-12-14T09:33:56.765Z,-1.25
2022-12-14T09:36:04.334Z,-1.24
2022-12-14T09:38:07.072Z,-1.35
2022-12-14T09:40:11.380Z,-1.62
2022-12-14T09:42:35.679Z,-1.37
2022-12-14T09:44:57.270Z,-1.13
2022-12-14T09:47:17.566Z,-1.01
2022-12-14T09:49:32.102Z,-0.97
2022-12-14T09:51:37.028Z,-0.94
2022-12-14T09:53:42.126Z,-0.88
2022-12-14T09:55:51.630Z,-0.89
2022-12-14T09:57:59.384Z,-0.64
2022-12-14T10:00:01.900Z,-0.67
2022-12-14T10:02:30.424Z,-0.07
2022-12-14T10:05:12.255Z,0.22
2022-12-14T10:07:24.162Z,0.39
2022-12-14T10:09:32.777Z,0.17
2022-12-14T10:12:01.821Z,0.55
2022-12-14T10:14:22.807Z,0.05
2022-12-14T10:16:37.243Z,0.26
2022-12-14T10:19:06.343Z,0.01
2022-12-14T10:21:20.487Z,-0.27
2022-12-14T10:23:26.015Z,-0.30
2022-12-14T10:25:32.508Z,-0.11
2022-12-14T10:28:01.107Z,0.06
2022-12-14T10:30:00.708Z,0.19
2022-12-14T10:32:09.421Z,-0.04
2022-12-14T10:34:24.565Z,-0.25
2022-12-14T10:36:33.815Z,-0.19
2022-12-14T10:38:58.677Z,-0.18
2022-12-14T10:41:19.078Z,-0.33
2022-12-14T10:43:27.526Z,-0.69
2022-12-14T10:45:47.205Z,-0.55
2022-12-14T10:48:04.831Z,-0.52
2022-12-14T10:50:38.410Z,-0.55
2022-12-14T10:52:43.578Z,-0.66
2022-12-14T10:55:00.714Z,-0.62
2022-12-14T10:57:03.539Z,-0.50
2022-12-14T10:59:24.064Z,-0.38
2022-12-14T11:01:27.432Z,-0.52
2022-12-14T11:03:30.200Z,-0.16
2022-12-14T11:05:57.346Z,-0.65
2022-12-14T11:08:00.039Z,-0.71
2022-12-14T11:10:25.251Z,-0.76
2022-12-14T11:12:28.243Z,-0.79
2022-12-14T11:14:31.406Z,-0.80
2022-12-14T11:16:37.506Z,-0.58
2022-12-14T11:18:41.184Z,-1.00
2022-12-14T11:21:05.138Z,-0.87
2022-12-14T11:23:24.777Z,-0.68
2022-12-14T11:25:41.012Z,-0.64
2022-12-14T11:27:43.377Z,-0.52
2022-12-14T11:29:49.395Z,-0.61
2022-12-14T11:31:55.139Z,-0.63
2022-12-14T11:33:59.577Z,-0.32
2022-12-14T11:36:03.055Z,-0.39
2022-12-14T11:38:05.791Z,-0.26
2022-12-14T11:40:23.087Z,-0.06
2022-12-14T11:42:26.528Z,-0.39
2022-12-14T11:44:33.325Z,-0.59
2022-12-14T11:46:49.950Z,-0.53
2022-12-14T11:48:52.398Z,-0.58
2022-12-14T11:51:12.785Z,-0.76
2022-12-14T11:53:17.756Z,-0.88
2022-12-14T11:55:26.736Z,-0.60
2022-12-14T11:57:51.085Z,-0.52
2022-12-14T12:00:03.153Z,-0.54
2022-12-14T12:02:18.436Z,-0.68
2022-12-14T12:04:21.317Z,-0.91
2022-12-14T12:06:30.112Z,-0.76
2022-12-14T12:08:36.658Z,-0.34
2022-12-14T12:10:49.875Z,-0.75
2022-12-14T12:12:54.939Z,-0.78
2022-12-14T12:14:58.962Z,-0.69
2022-12-14T12:17:01.587Z,-0.64
2022-12-14T12:19:12.782Z,-0.66
2022-12-14T12:21:37.766Z,-0.51
2022-12-14T12:23:43.818Z,-0.50
2022-12-14T12:25:48.749Z,-0.63
2022-12-14T12:28:16.057Z,-0.60
2022-12-14T12:30:30.050Z,-0.88
2022-12-14T12:32:44.287Z,-0.65
2022-12-14T12:35:11.548Z,-0.51
2022-12-14T12:37:27.617Z,-0.36
2022-12-14T12:39:34.265Z,-0.28
2022-12-14T12:41:41.951Z,-0.42
2022-12-14T12:44:01.295Z,-0.37
2022-12-14T12:46:16.855Z,-0.46
2022-12-14T12:48:25.522Z,-0.81
2022-12-14T12:50:36.526Z,-0.65
2022-12-14T12:53:03.841Z,-0.33
2022-12-14T12:55:17.025Z,-0.43
2022-12-14T12:57:21.432Z,-0.43
2022-12-14T12:59:51.413Z,-0.45
2022-12-14T13:01:57.490Z,-0.78
2022-12-14T13:04:05.753Z,-0.62
2022-12-14T13:06:41.094Z,-0.40
2022-12-14T13:08:44.221Z,-0.40
2022-12-14T13:13:27.037Z,-0.20
2022-12-14T13:15:35.940Z,-0.19
2022-12-14T13:17:50.858Z,0.00
2022-12-14T13:19:56.483Z,-0.04
2022-12-14T13:22:04.928Z,-0.19
2022-12-14T13:24:17.005Z,-0.12
2022-12-14T13:29:31.361Z,-0.75
2022-12-14T13:31:47.455Z,-0.36
2022-12-14T13:34:01.337Z,-0.12
2022-12-14T13:36:25.635Z,-0.09
2022-12-14T13:38:52.849Z,0.11
2022-12-14T13:40:58.186Z,-0.11
2022-12-14T13:43:15.713Z,-0.25
2022-12-14T13:45:28.516Z,-0.25
2022-12-14T13:47:37.106Z,-0.27
2022-12-14T13:49:39.490Z,-0.62
2022-12-14T13:51:50.127Z,-0.74
2022-12-14T13:53:59.004Z,-0.65
2022-12-14T13:56:02.373Z,-0.72
2022-12-14T13:58:20.309Z,-0.47
2022-12-14T14:00:50.439Z,-0.67
2022-12-14T14:02:53.830Z,-0.65
2022-12-14T14:05:15.026Z,-0.87
2022-12-14T14:07:23.288Z,-1.03
2022-12-14T14:09:26.016Z,-0.72
2022-12-14T14:11:43.484Z,-0.93
2022-12-14T14:13:49.615Z,-0.94
2022-12-14T14:16:26.920Z,-0.81
2022-12-14T14:18:23.717Z,-0.96
2022-12-14T14:20:37.508Z,-0.81
2022-12-14T14:22:40.227Z,-0.83
2022-12-14T14:25:25.555Z,-0.83
2022-12-14T14:27:39.813Z,-0.77
2022-12-14T14:29:50.574Z,-0.88
2022-12-14T14:31:57.522Z,-0.74
2022-12-14T14:34:00.553Z,-1.06
2022-12-14T14:36:11.899Z,-0.81
2022-12-14T14:38:31.911Z,-0.71
2022-12-14T14:41:14.083Z,-0.72
2022-12-14T14:43:17.882Z,-0.62
2022-12-14T14:45:31.544Z,-0.56
2022-12-14T14:47:37.757Z,-0.62
2022-12-14T14:49:43.636Z,-0.71
2022-12-14T14:51:45.948Z,-0.81
2022-12-14T14:53:50.312Z,-0.84
2022-12-14T14:55:56.459Z,-0.79
2022-12-14T14:58:04.237Z,-0.63
2022-12-14T15:00:11.077Z,-0.84
2022-12-14T15:02:29.539Z,-0.92
2022-12-14T15:04:44.597Z,-1.06
2022-12-14T15:06:51.076Z,-0.90
2022-12-14T15:08:57.221Z,-0.86
2022-12-14T15:11:04.455Z,-0.93
2022-12-14T15:13:14.765Z,-0.86
2022-12-14T15:15:21.862Z,-0.78
2022-12-14T15:17:25.416Z,-0.61
2022-12-14T15:19:36.174Z,-0.67
2022-12-14T15:21:39.367Z,-0.95
2022-12-14T15:23:49.409Z,-0.79
2022-12-14T15:26:00.647Z,-0.79
2022-12-14T15:28:07.625Z,-0.70
2022-12-14T15:30:12.885Z,-0.65
2022-12-14T15:32:19.476Z,-0.48
2022-12-14T15:34:23.109Z,-0.43
2022-12-14T15:36:30.599Z,-0.43
2022-12-14T15:38:36.703Z,-0.44
2022-12-14T15:40:39.962Z,-0.82
2022-12-14T15:42:53.677Z,-0.79
2022-12-14T15:44:56.732Z,-0.66
2022-12-14T15:46:59.406Z,-0.40
2022-12-14T15:49:10.768Z,-0.60
2022-12-14T15:51:17.047Z,-0.76
2022-12-14T15:53:50.787Z,-0.57
2022-12-14T15:56:01.042Z,-0.57
2022-12-14T15:58:08.139Z,-0.66
2022-12-14T16:00:11.993Z,-0.61
2022-12-14T16:02:28.431Z,-0.80
2022-12-14T16:04:31.659Z,-0.86
2022-12-14T16:06:40.462Z,-0.63
2022-12-14T16:08:53.189Z,-0.62
2022-12-14T16:11:00.635Z,-0.35
2022-12-14T16:13:21.986Z,-0.55
2022-12-14T16:15:27.291Z,-0.77
2022-12-14T16:17:36.174Z,-1.01
2022-12-14T16:19:58.189Z,-1.07
2022-12-14T16:22:22.002Z,-0.73
2022-12-14T16:24:25.782Z,-0.66
2022-12-14T16:26:37.937Z,-0.65
2022-12-14T16:28:40.991Z,-0.40
2022-12-14T16:30:57.527Z,-0.47
2022-12-14T16:33:18.601Z,-0.58
2022-12-14T16:35:23.283Z,-0.37
2022-12-14T16:37:34.099Z,-0.49
2022-12-14T16:39:44.563Z,-0.57
2022-12-14T16:42:00.957Z,-0.67
2022-12-14T16:44:05.906Z,-0.64
2022-12-14T16:46:12.874Z,-0.63
2022-12-14T16:48:18.466Z,-0.56
2022-12-14T16:52:46.759Z,-0.60
2022-12-14T16:55:10.517Z,-0.67
2022-12-14T16:57:24.287Z,-0.80
2022-12-14T16:59:48.495Z,-0.76
2022-12-14T17:01:52.119Z,-0.84
2022-12-14T17:04:05.364Z,-0.81
2022-12-14T17:06:09.510Z,-0.62
2022-12-14T17:08:13.313Z,-0.57
2022-12-14T17:10:18.974Z,-0.64
2022-12-14T17:12:21.628Z,-0.59
2022-12-14T17:14:28.039Z,-0.90
2022-12-14T17:16:30.659Z,-0.63
2022-12-14T17:18:38.333Z,-0.71
2022-12-14T17:20:42.384Z,-0.63
2022-12-14T17:22:49.656Z,-0.69
2022-12-14T17:24:52.509Z,-0.59
2022-12-14T17:26:55.795Z,-0.54
2022-12-14T17:28:58.705Z,-0.50
2022-12-14T17:31:03.141Z,-0.50
2022-12-14T17:33:06.473Z,-0.46
2022-12-14T17:35:26.904Z,-0.66
2022-12-14T17:37:36.208Z,-0.63
2022-12-14T17:39:40.040Z,-0.66
2022-12-14T17:41:45.533Z,-0.60
2022-12-14T17:43:56.826Z,-0.53
2022-12-14T17:46:03.910Z,-0.64
2022-12-14T17:48:13.171Z,-0.47
2022-12-14T17:50:18.279Z,-0.51
2022-12-14T17:52:29.002Z,-0.60
2022-12-14T17:54:32.519Z,-0.80
2022-12-14T17:56:35.471Z,-0.90
2022-12-14T17:58:38.510Z,-0.83
2022-12-14T18:01:00.690Z,-0.84
2022-12-14T18:03:07.315Z,-0.65
2022-12-14T18:05:22.433Z,-0.60
2022-12-14T18:07:26.251Z,-0.53
2022-12-14T18:09:30.299Z,-0.66
2022-12-14T18:11:34.457Z,-0.71
2022-12-14T18:13:38.144Z,-0.86
2022-12-14T18:15:49.542Z,-0.72
2022-12-14T18:17:54.344Z,-0.79
2022-12-14T18:19:57.960Z,-0.81
2022-12-14T18:22:01.649Z,-0.76
2022-12-14T18:24:11.374Z,-0.99
2022-12-14T18:26:21.354Z,-0.80
2022-12-14T18:28:25.188Z,-0.81
2022-12-14T18:30:34.913Z,-0.90
2022-12-14T18:32:40.535Z,-0.90
2022-12-14T18:34:44.089Z,-0.71
2022-12-14T18:36:47.769Z,-0.68
2022-12-14T18:39:11.709Z,-0.71
2022-12-14T18:41:23.140Z,-0.63
2022-12-14T18:43:28.626Z,-0.84
2022-12-14T18:45:35.227Z,-0.78
2022-12-14T18:47:42.805Z,-0.87
2022-12-14T18:49:46.764Z,-0.96
2022-12-14T18:51:51.640Z,-0.94
2022-12-14T18:53:56.665Z,-0.87
2022-12-14T18:56:01.343Z,-0.75
2022-12-14T18:58:05.348Z,-0.84
2022-12-14T19:00:12.916Z,-0.85
2022-12-14T19:02:17.161Z,-0.90
2022-12-14T19:04:25.593Z,-0.91
2022-12-14T19:06:45.679Z,-0.76
2022-12-14T19:08:49.893Z,-0.54
2022-12-14T19:10:54.827Z,-0.79
2022-12-14T19:13:02.565Z,-1.02
2022-12-14T19:15:09.135Z,-0.89
2022-12-14T19:17:14.355Z,-0.84
2022-12-14T19:19:22.512Z,-0.93
2022-12-14T19:21:29.340Z,-0.91
2022-12-14T19:23:34.025Z,-0.81
2022-12-14T19:25:42.183Z,-0.94
2022-12-14T19:30:23.657Z,-1.13
2022-12-14T19:32:28.296Z,-0.89
2022-12-14T19:34:32.443Z,-0.79
2022-12-14T19:36:38.953Z,-0.75
2022-12-14T19:38:49.252Z,-0.80
2022-12-14T19:41:09.257Z,-0.96
2022-12-14T19:43:14.895Z,-0.76
2022-12-14T19:45:19.007Z,-0.65
2022-12-14T19:47:23.313Z,-0.59
2022-12-14T19:49:30.145Z,-0.46
2022-12-14T19:51:34.635Z,-0.43
2022-12-14T19:53:39.654Z,-0.60
2022-12-14T19:55:53.319Z,-0.67
2022-12-14T19:57:57.552Z,-0.78
2022-12-14T20:00:02.102Z,-0.68
2022-12-14T20:02:15.143Z,-0.78
2022-12-14T20:04:19.625Z,-0.71
2022-12-14T20:06:23.700Z,-0.64
2022-12-14T20:08:31.830Z,-0.76
2022-12-14T20:10:37.313Z,-0.62
2022-12-14T20:12:40.383Z,-0.79
2022-12-14T20:14:44.441Z,-0.95
2022-12-14T20:16:55.261Z,-0.67
2022-12-14T20:18:59.133Z,-1.00
2022-12-14T20:21:05.542Z,-0.97
2022-12-14T20:23:12.238Z,-1.01
2022-12-14T20:25:15.365Z,-0.85
2022-12-14T20:27:20.727Z,-0.99
2022-12-14T20:29:25.379Z,-0.96
2022-12-14T20:31:36.153Z,-0.88
2022-12-14T20:33:40.197Z,-0.90
2022-12-14T20:35:45.433Z,-1.15
2022-12-14T20:37:53.177Z,-1.22
2022-12-14T20:39:56.616Z,-1.20
2022-12-14T20:42:00.966Z,-1.17
2022-12-14T20:44:08.802Z,-1.06
2022-12-14T20:46:34.888Z,-1.19
2022-12-14T20:48:38.582Z,-1.10
2022-12-14T20:50:43.979Z,-0.78
2022-12-14T20:52:53.134Z,-0.98
2022-12-14T20:54:59.760Z,-0.95
2022-12-14T20:57:02.720Z,-0.85
2022-12-14T20:59:08.380Z,-0.83
2022-12-14T21:01:13.962Z,-0.64
2022-12-14T21:03:17.065Z,-0.77
2022-12-14T21:05:20.325Z,-0.75
2022-12-14T21:07:26.450Z,-0.74
2022-12-14T21:09:31.569Z,-0.75
2022-12-14T21:11:55.897Z,-0.83
2022-12-14T21:13:58.985Z,-0.59
2022-12-14T21:16:09.827Z,-0.74
2022-12-14T21:18:12.267Z,-0.79
2022-12-14T21:20:15.366Z,-0.74
2022-12-14T21:22:21.296Z,-0.83
2022-12-14T21:25:00.558Z,-0.93
2022-12-14T21:26:49.219Z,-0.75
2022-12-14T21:28:51.501Z,-0.64
2022-12-14T21:30:53.935Z,-0.34
2022-12-14T21:32:57.876Z,-0.63
2022-12-14T21:35:00.348Z,-0.42
2022-12-14T21:37:02.810Z,-1.12
2022-12-14T21:39:06.050Z,-0.88
2022-12-14T21:41:27.085Z,-0.68
2022-12-14T21:43:29.825Z,-0.70
2022-12-14T21:45:33.548Z,-0.54
2022-12-14T21:47:35.874Z,-0.96
2022-12-14T21:49:40.362Z,-1.01
2022-12-14T21:51:43.024Z,-1.04
2022-12-14T21:53:59.984Z,-1.15
2022-12-14T21:56:21.319Z,-1.02
2022-12-14T21:58:24.738Z,-0.93
2022-12-14T22:00:27.081Z,-0.90
2022-12-14T22:02:30.026Z,-0.71
2022-12-14T22:04:37.963Z,-0.62
2022-12-14T22:06:42.199Z,-0.62
2022-12-14T22:08:44.749Z,-0.60
2022-12-14T22:10:46.997Z,-0.61
2022-12-14T22:12:49.264Z,-0.58
2022-12-14T22:14:51.850Z,-0.60
2022-12-14T22:16:54.267Z,-1.05
2022-12-14T22:18:58.203Z,-1.13
2022-12-14T22:21:04.927Z,-1.14
2022-12-14T22:23:07.233Z,-1.10
2022-12-14T22:25:09.766Z,-0.89
2022-12-14T22:27:13.268Z,-0.76
2022-12-14T22:29:17.226Z,-0.74
2022-12-14T22:31:20.768Z,-0.61
2022-12-14T22:33:23.422Z,-0.63
2022-12-14T22:35:25.703Z,-0.58
2022-12-14T22:37:28.007Z,-0.46
2022-12-14T22:39:30.902Z,-0.57
2022-12-14T22:41:33.355Z,-0.67
2022-12-14T22:43:37.471Z,-0.67
2022-12-14T22:45:40.250Z,-0.54
2022-12-14T22:47:42.878Z,-0.45
2022-12-14T22:49:45.194Z,-0.52
2022-12-14T22:51:48.036Z,-0.37
2022-12-14T22:53:50.384Z,-0.40
2022-12-14T22:55:54.638Z,-0.34
2022-12-14T22:57:58.092Z,-0.27
